This is the latest recevied weather packets stored in our database for station/object W4FXD. If no packets are shown the sender has not sent any weather packets the latest 1 day(s).
| Time | Temp. | Humidity | Pressure | Rain* | Wind** | Luminosity | Snow |
|---|---|---|---|---|---|---|---|
| 1778084368 | 18.33° C | 99% | 1012.7 hPa | 0 mm | - | 242 W/m² | - |
| 1778081434 | 17.22° C | 99% | 1013 hPa | 0 mm | - | 72 W/m² | - |
| 1778079920 | 16.67° C | 99% | 1012.7 hPa | 1.27 mm | - | 92 W/m² | - |
| 1778077196 | 16.67° C | 99% | 1013.1 hPa | 4.32 mm | - | 37 W/m² | - |
| 1778076894 | 16.67° C | 99% | 1012.8 hPa | 6.1 mm | - | 24 W/m² | - |
| 1778076289 | 16.67° C | 99% | 1012.6 hPa | 4.83 mm | - | 19 W/m² | - |
| 1778075985 | 16.67° C | 99% | 1012.8 hPa | 3.05 mm | - | 22 W/m² | - |
| 1778075683 | 16.67° C | 99% | 1012.8 hPa | 3.05 mm | - | 31 W/m² | - |
| 1778075075 | 16.67° C | 99% | 1012.8 hPa | 4.83 mm | - | 35 W/m² | - |
| 1778074772 | 16.67° C | 99% | 1012.3 hPa | 4.83 mm | - | 39 W/m² | - |
| 1778074166 | 16.67° C | 99% | 1011.9 hPa | 1.78 mm | - | 35 W/m² | - |
| 1778073863 | 16.67° C | 99% | 1011.9 hPa | 3.05 mm | - | 39 W/m² | - |
| 1778072650 | 16.67° C | 99% | 1011.9 hPa | 4.32 mm | - | 32 W/m² | - |
| 1778071441 | 16.67° C | 99% | 1012.4 hPa | 6.6 mm | - | 7 W/m² | - |
| 1778071139 | 16.67° C | 99% | 1012.2 hPa | 4.32 mm | - | 8 W/m² | - |
| 1778070837 | 16.67° C | 99% | 1012 hPa | 1.27 mm | - | 12 W/m² | - |
| 1778068416 | 17.78° C | 95% | 1012.1 hPa | 3.05 mm | - | 5 W/m² | - |
| 1778066298 | 18.33° C | 89% | 1011.1 hPa | 1.27 mm | - | 6 W/m² | - |
| 1778065693 | 18.33° C | 88% | 1011 hPa | 0 mm | - | 4 W/m² | - |
| 1778064481 | 20° C | 80% | 1011.2 hPa | 0 mm | - | 0 W/m² | - |
| 1778063876 | 20° C | 77% | 1011 hPa | 0 mm | - | 0 W/m² | - |
| 1778063573 | 20° C | 77% | 1010.8 hPa | 0 mm | - | 0 W/m² | - |
| 1778062665 | 20.56° C | 75% | 1010.5 hPa | 0 mm | - | 0 W/m² | - |
| 1778061456 | 20.56° C | 74% | 1010.1 hPa | 0 mm | - | 0 W/m² | - |
| 1778060849 | 20.56° C | 74% | 1009.7 hPa | 0 mm | - | 0 W/m² | - |
* Rain latest hour (hover to see other rain measurements)
** Current wind speed in m/s (hover to see current wind gust speed)